Thursday, October 30, 2014
13:46 UTC
  |  Log In   |  Register Free
Airport Search:

Southwest Georgia Regional Airport
(KABY)

FAA data valid effective September 18, 2014 - November 13, 2014 (unless otherwise noted).

 
 
 
 
 
 
 
 
 
 
 
 
 
 

Current Aviation Weather for Southwest Georgia Regional Airport (KABY)

The most recent METAR observation for KABY was updated at: 1307
METAR Summary (Translated METAR)
KABY
301253Z 35005KT 10SM CLR 13/08 A3007 RMK AO2 SLP182 T01330083 PNO $
KMGR
301255Z AUTO 35003KT 10SM BKN085 BKN120 15/11 A3005 RMK AO2
(33.7 nm SE from KABY)
KACJ
301255Z AUTO 36009KT 10SM CLR 11/07 A3008 RMK AO2
(34.5 nm NE from KABY)
TAF Summary (Translated TAF)
KABY
301120Z 3012/3112 34004KT P6SM SCT250 FM301400 36009KT P6SM SKC FM310300 34003KT P6SM SKC
  Airport Weather Conditions for KABY

 Current Weather at ABY
56° F
Fair
North winds at 5.8 mph
ABY NOAA Radar

Pressure: 30.07 in
Humidity: 72%
Wind: North at 5.8 MPH (5 KT)
Dew Point: 46.9°F
Visibility: 10.00 mi


Airport Weather Forecast for KABY

Translated METAR and TAF for KABY
Translated METAR for KABY (1342 UTC 30 October 2014)
found at http://aviationweather.gov/adds/metars/
 
METAR text: KABY 301253Z 35005KT 10SM CLR 13/08 A3007 RMK AO2 SLP182 T01330083 PNO $
Conditions at: KABY (ALBANY , GA, US) observed 1253 UTC 30 October 2014
Temperature: 13.3°C (56°F)
Dewpoint: 8.3°C (47°F) [RH = 72%]
Pressure (altimeter): 30.07 inches Hg (1018.4 mb)
[Sea-level pressure: 1018.2 mb]
Winds: from the N (350 degrees) at 6 MPH (5 knots; 2.6 m/s)
Visibility: 10 or more miles (16+ km)
Ceiling: at least 12,000 feet AGL
Clouds: sky clear below 12,000 feet AGL
Weather:
SOME DATA ABOVE MAY BE INACCURATE!!!
"$" is an indication the sensor requires maintenance
Translated TAF for KABY
Forecast for: KABY (ALBANY , GA, US)
TAF Text: KABY 301120Z 3012/3112 34004KT P6SM SCT250
Forecast period: 1200 to 1400 UTC 30 October 2014
Forecast type: FROM: standard forecast or significant change
Winds: from the NNW (340 degrees) at 5 MPH (4 knots; 2.1 m/s)
Visibility: 6 or more miles (10+ km)
Clouds: scattered clouds at 25000 feet AGL
Weather: no significant weather forecast for this period
TAF Text: FM301400 36009KT P6SM SKC
Forecast period: 1400 UTC 30 October 2014 to 0300 UTC 31 October 2014
Forecast type: FROM: standard forecast or significant change
Winds: from the N (360 degrees) at 10 MPH (9 knots; 4.7 m/s)
Visibility: 6 or more miles (10+ km)
Clouds: clear skies
Weather: no significant weather forecast for this period
TAF Text: FM310300 34003KT P6SM SKC
Forecast period: 0300 to 1200 UTC 31 October 2014
Forecast type: FROM: standard forecast or significant change
Winds: from the NNW (340 degrees) at 3 MPH (3 knots; 1.6 m/s)
Visibility: 6 or more miles (10+ km)
Clouds: clear skies
Weather: no significant weather forecast for this period

Find All Airport Services Find A Hotel Find A Rental Car Find A Golf Course Find A Restaurant $100 Hamburger



FBO's on the Field
FBO Company Facility Photos Services Transportation Aviation Fuel Prices: Prices include tax
Catering Weather Repair Courtesy Rental Type 100LL JetA JetA+ MOGAS 8087
 
Eagles of America, Inc. - ABY

Currently rated 5 by 1 person
FS:Epic
Last Updated: Oct-16
Login to update fuel prices
SS:
Contact Eagles of America, Inc. - ABYMore FBO Information
 
Add another FBO Facility Photos Catering Weather Repair Courtesy Rental Type 100LL JetA JetA+ MOGAS 8087
Services Transportation Aviation Fuel Prices: Prices include tax


model-print
model-print
model-print
model-print